Time;durP1;ratioP1;P1;durP2;ratioP2;P2;SDS_P1;SDS_P2;PMS_P1;PMS_P2;Temp;Humidity;BMP_temperature;BMP_pressure;BME280_temperature;BME280_humidity;BME280_pressure;Samples;Min_cycle;Max_cycle;Signal;HPM_P1;HPM_P2
2022/08/13 00:02:02;;;;;;;0.95;0.90;;;;;;;;;;1849374;76;26389;-88
2022/08/13 00:04:27;;;;;;;1.50;1.10;;;;;;;;;;1860734;76;26516;-88
2022/08/13 00:07:07;;;;;;;1.00;1.00;;;;;;;;;;1832257;76;26779;-88
2022/08/13 00:09:36;;;;;;;1.00;1.00;;;;;;;;;;1849804;77;26425;-88
2022/08/13 00:14:50;;;;;;;0.98;0.98;;;;;;;;;;1858834;76;26750;-88
2022/08/13 00:17:18;;;;;;;2.62;1.10;;;;;;;;;;1856682;77;26713;-88
2022/08/13 00:19:47;;;;;;;2.08;0.90;;;;;;;;;;1855143;76;26288;-88
2022/08/13 00:22:18;;;;;;;2.52;0.95;;;;;;;;;;1844793;76;26544;-88
2022/08/13 00:24:45;;;;;;;1.55;0.88;;;;;;;;;;1856359;76;26720;-88
2022/08/13 00:27:12;;;;;;;1.10;0.88;;;;;;;;;;1855802;76;26623;-89
2022/08/13 00:29:41;;;;;;;1.10;1.10;;;;;;;;;;1850354;76;26309;-88
2022/08/13 00:32:08;;;;;;;2.72;1.00;;;;;;;;;;1854371;76;26811;-88
2022/08/13 00:34:35;;;;;;;1.00;0.98;;;;;;;;;;1852563;76;26404;-88
2022/08/13 00:37:03;;;;;;;1.50;0.90;;;;;;;;;;1854772;77;26259;-89
2022/08/13 00:39:30;;;;;;;1.05;0.90;;;;;;;;;;1842961;77;26277;-88
2022/08/13 00:41:57;;;;;;;1.20;1.00;;;;;;;;;;1858004;76;26267;-89
2022/08/13 00:44:25;;;;;;;0.85;0.80;;;;;;;;;;1849435;77;26385;-90
2022/08/13 00:48:41;;;;;;;0.80;0.80;;;;;;;;;;1823758;76;26330;-88
2022/08/13 00:49:26;;;;;;;0.82;0.82;;;;;;;;;;1856215;75;26339;-90
2022/08/13 00:51:56;;;;;;;0.88;0.88;;;;;;;;;;1820658;76;26279;-89
2022/08/13 00:54:23;;;;;;;0.85;0.85;;;;;;;;;;1861676;76;26308;-89
2022/08/13 00:56:52;;;;;;;0.80;0.80;;;;;;;;;;1858520;77;26244;-89
2022/08/13 00:59:19;;;;;;;1.12;0.80;;;;;;;;;;1864493;77;26370;-87
2022/08/13 01:01:47;;;;;;;0.98;0.88;;;;;;;;;;1861738;77;26607;-88
2022/08/13 01:04:14;;;;;;;0.88;0.88;;;;;;;;;;1859052;76;26633;-88
2022/08/13 01:06:42;;;;;;;1.65;0.90;;;;;;;;;;1852745;77;26263;-88
2022/08/13 01:09:12;;;;;;;1.02;0.90;;;;;;;;;;1855227;77;26398;-88
2022/08/13 01:11:39;;;;;;;0.80;0.80;;;;;;;;;;1860281;77;26331;-87
2022/08/13 01:14:07;;;;;;;1.42;0.80;;;;;;;;;;1843212;77;26783;-88
2022/08/13 01:16:40;;;;;;;0.90;0.88;;;;;;;;;;1858133;77;26357;-88
2022/08/13 01:19:09;;;;;;;0.70;0.70;;;;;;;;;;1860079;76;26280;-87
2022/08/13 01:21:39;;;;;;;0.80;0.80;;;;;;;;;;1862914;76;26357;-88
2022/08/13 01:24:10;;;;;;;0.90;0.90;;;;;;;;;;1853784;76;26400;-87
2022/08/13 01:26:37;;;;;;;0.80;0.80;;;;;;;;;;1864021;77;26862;-88
2022/08/13 01:29:05;;;;;;;0.80;0.80;;;;;;;;;;1863356;76;26410;-87
2022/08/13 01:31:34;;;;;;;0.70;0.70;;;;;;;;;;1834621;76;26326;-88
2022/08/13 01:34:03;;;;;;;0.80;0.80;;;;;;;;;;1859993;76;26270;-88
2022/08/13 01:36:31;;;;;;;0.70;0.70;;;;;;;;;;1866714;76;26282;-88
2022/08/13 01:39:03;;;;;;;0.70;0.70;;;;;;;;;;1863127;76;26235;-88
2022/08/13 01:41:28;;;;;;;0.80;0.80;;;;;;;;;;1854892;77;26299;-89
2022/08/13 01:44:05;;;;;;;0.80;0.80;;;;;;;;;;1820655;76;27514;-89
2022/08/13 01:50:28;;;;;;;1.30;0.78;;;;;;;;;;1823341;78;26786;-89
2022/08/13 01:51:42;;;;;;;0.60;0.60;;;;;;;;;;1828244;78;26357;-88
2022/08/13 01:54:09;;;;;;;0.65;0.65;;;;;;;;;;1829083;77;26283;-89
2022/08/13 01:56:37;;;;;;;0.70;0.70;;;;;;;;;;1828122;77;26264;-88
2022/08/13 01:59:04;;;;;;;0.70;0.70;;;;;;;;;;1832999;77;26683;-88
2022/08/13 02:01:32;;;;;;;0.70;0.70;;;;;;;;;;1829195;77;26286;-87
2022/08/13 02:03:59;;;;;;;0.65;0.65;;;;;;;;;;1824065;77;26247;-87
2022/08/13 02:06:28;;;;;;;0.70;0.70;;;;;;;;;;1813021;78;26251;-87
2022/08/13 02:08:57;;;;;;;0.70;0.70;;;;;;;;;;1815998;78;26216;-87
2022/08/13 02:11:26;;;;;;;0.65;0.65;;;;;;;;;;1824953;78;26336;-87
2022/08/13 02:13:54;;;;;;;0.88;0.88;;;;;;;;;;1810880;77;26215;-88
2022/08/13 02:16:22;;;;;;;0.78;0.78;;;;;;;;;;1820926;78;26330;-88
2022/08/13 02:18:52;;;;;;;0.80;0.80;;;;;;;;;;1844861;77;26249;-87
2022/08/13 02:21:22;;;;;;;0.70;0.70;;;;;;;;;;1823454;77;26775;-88
2022/08/13 02:23:53;;;;;;;0.70;0.70;;;;;;;;;;1828999;78;26411;-88
2022/08/13 02:26:23;;;;;;;1.07;0.88;;;;;;;;;;1827952;77;26224;-88
2022/08/13 02:28:54;;;;;;;0.80;0.80;;;;;;;;;;1813402;78;26354;-88
2022/08/13 02:31:22;;;;;;;0.80;0.80;;;;;;;;;;1825157;78;26299;-88
2022/08/13 02:33:49;;;;;;;0.80;0.80;;;;;;;;;;1828393;77;26249;-88
2022/08/13 02:36:18;;;;;;;0.80;0.80;;;;;;;;;;1799345;78;26267;-88
2022/08/13 02:38:46;;;;;;;0.90;0.90;;;;;;;;;;1824571;77;26345;-88
2022/08/13 02:44:00;;;;;;;0.90;0.90;;;;;;;;;;1842156;76;26874;-88
2022/08/13 02:46:27;;;;;;;0.88;0.88;;;;;;;;;;1855604;76;26751;-88
2022/08/13 02:48:59;;;;;;;0.90;0.90;;;;;;;;;;1857950;76;26812;-87
2022/08/13 02:51:26;;;;;;;0.80;0.80;;;;;;;;;;1856318;76;26313;-88
2022/08/13 02:53:53;;;;;;;0.85;0.85;;;;;;;;;;1843775;76;26254;-87
2022/08/13 02:56:20;;;;;;;0.90;0.90;;;;;;;;;;1854835;76;26390;-89
2022/08/13 02:58:48;;;;;;;0.90;0.90;;;;;;;;;;1845016;76;26273;-88
2022/08/13 03:01:15;;;;;;;1.00;1.00;;;;;;;;;;1855903;76;26264;-88
2022/08/13 03:03:42;;;;;;;0.90;0.90;;;;;;;;;;1857093;76;26247;-88
2022/08/13 03:06:10;;;;;;;0.90;0.90;;;;;;;;;;1843588;76;26210;-89
2022/08/13 03:08:38;;;;;;;1.00;1.00;;;;;;;;;;1830242;76;26262;-88
2022/08/13 03:11:05;;;;;;;0.90;0.90;;;;;;;;;;1842558;76;26797;-87
2022/08/13 03:13:33;;;;;;;1.00;1.00;;;;;;;;;;1841993;76;26373;-88
2022/08/13 03:16:01;;;;;;;0.90;0.90;;;;;;;;;;1849593;76;26256;-88
2022/08/13 03:18:30;;;;;;;1.00;1.00;;;;;;;;;;1856539;76;26278;-87
2022/08/13 03:20:58;;;;;;;1.00;1.00;;;;;;;;;;1834715;76;26336;-88
2022/08/13 03:23:27;;;;;;;1.10;1.10;;;;;;;;;;1837198;76;26293;-89
2022/08/13 03:25:54;;;;;;;1.07;1.07;;;;;;;;;;1859612;76;26260;-89
2022/08/13 03:28:23;;;;;;;1.05;1.05;;;;;;;;;;1853697;76;26379;-89
2022/08/13 03:30:50;;;;;;;1.00;1.00;;;;;;;;;;1842025;76;26678;-88
2022/08/13 03:33:17;;;;;;;1.10;1.10;;;;;;;;;;1856797;76;26310;-88
2022/08/13 03:35:45;;;;;;;1.10;1.10;;;;;;;;;;1856775;76;26319;-89
2022/08/13 03:38:15;;;;;;;1.02;1.00;;;;;;;;;;1827877;76;26843;-89
2022/08/13 03:41:00;;;;;;;1.10;1.10;;;;;;;;;;1826034;76;26313;-88
2022/08/13 03:43:29;;;;;;;1.10;1.10;;;;;;;;;;1847615;76;26815;-89
2022/08/13 03:45:57;;;;;;;1.22;1.22;;;;;;;;;;1829928;78;26238;-88
2022/08/13 03:48:26;;;;;;;1.20;1.20;;;;;;;;;;1821745;77;26715;-89
2022/08/13 03:51:00;;;;;;;1.12;1.12;;;;;;;;;;1824670;78;26234;-88
2022/08/13 03:53:24;;;;;;;2.10;1.20;;;;;;;;;;1824518;78;26388;-89
2022/08/13 03:55:51;;;;;;;1.10;1.10;;;;;;;;;;1814337;78;26268;-89
2022/08/13 03:58:21;;;;;;;1.20;1.10;;;;;;;;;;1823958;78;26510;-89
2022/08/13 04:00:48;;;;;;;1.20;1.20;;;;;;;;;;1804946;78;26368;-89
2022/08/13 04:03:19;;;;;;;1.10;1.10;;;;;;;;;;1824593;78;26286;-88
2022/08/13 04:05:48;;;;;;;1.20;1.20;;;;;;;;;;1819544;77;26307;-88
2022/08/13 04:08:15;;;;;;;1.20;1.20;;;;;;;;;;1808282;78;26925;-87
2022/08/13 04:10:43;;;;;;;1.30;1.30;;;;;;;;;;1819562;78;26308;-88
2022/08/13 04:13:12;;;;;;;1.17;1.17;;;;;;;;;;1838512;77;26285;-89
2022/08/13 04:15:42;;;;;;;1.37;1.37;;;;;;;;;;1819273;78;26374;-88
2022/08/13 04:18:11;;;;;;;1.30;1.30;;;;;;;;;;1826982;78;26460;-87
2022/08/13 04:20:39;;;;;;;1.30;1.30;;;;;;;;;;1829225;78;26254;-88
2022/08/13 04:23:09;;;;;;;1.30;1.30;;;;;;;;;;1830302;77;26314;-89
2022/08/13 04:25:36;;;;;;;1.30;1.30;;;;;;;;;;1832738;77;26985;-88
2022/08/13 04:28:07;;;;;;;1.30;1.30;;;;;;;;;;1828816;78;26214;-87
2022/08/13 04:30:38;;;;;;;1.40;1.40;;;;;;;;;;1821641;78;26360;-88
2022/08/13 04:33:03;;;;;;;1.20;1.20;;;;;;;;;;1811720;78;26335;-88
2022/08/13 04:35:30;;;;;;;1.20;1.20;;;;;;;;;;1839447;77;26285;-88
2022/08/13 04:37:58;;;;;;;1.10;1.10;;;;;;;;;;1828497;77;26280;-88
2022/08/13 04:40:25;;;;;;;1.20;1.20;;;;;;;;;;1834809;77;26267;-89
2022/08/13 04:42:54;;;;;;;1.10;1.10;;;;;;;;;;1829691;78;26703;-89
2022/08/13 04:45:22;;;;;;;1.30;1.30;;;;;;;;;;1880181;75;26400;-89
2022/08/13 04:47:49;;;;;;;1.10;1.10;;;;;;;;;;1889258;74;26240;-88
2022/08/13 04:50:17;;;;;;;1.20;1.20;;;;;;;;;;1893091;75;26288;-89
2022/08/13 04:52:44;;;;;;;1.20;1.20;;;;;;;;;;1878607;75;26315;-89
2022/08/13 04:55:12;;;;;;;1.22;1.22;;;;;;;;;;1885004;73;26301;-89
2022/08/13 04:57:41;;;;;;;1.25;1.25;;;;;;;;;;1913407;73;26232;-87
2022/08/13 05:00:09;;;;;;;1.20;1.20;;;;;;;;;;1893692;74;26347;-87
2022/08/13 05:02:38;;;;;;;1.25;1.25;;;;;;;;;;1894535;74;26339;-87
2022/08/13 05:05:06;;;;;;;1.40;1.30;;;;;;;;;;1898382;74;26267;-87
2022/08/13 05:07:34;;;;;;;1.30;1.30;;;;;;;;;;1890630;73;26217;-86
2022/08/13 05:10:01;;;;;;;1.20;1.20;;;;;;;;;;1895782;74;26292;-88
2022/08/13 05:12:30;;;;;;;1.92;1.22;;;;;;;;;;1883577;75;26733;-89
2022/08/13 05:14:58;;;;;;;1.37;1.37;;;;;;;;;;1892437;75;26363;-88
2022/08/13 05:17:26;;;;;;;1.27;1.27;;;;;;;;;;1886925;75;26321;-89
2022/08/13 05:19:54;;;;;;;1.25;1.25;;;;;;;;;;1890567;75;26269;-89
2022/08/13 05:22:23;;;;;;;1.30;1.30;;;;;;;;;;1889697;75;26276;-90
2022/08/13 05:24:50;;;;;;;1.20;1.20;;;;;;;;;;1876957;76;26308;-88
2022/08/13 05:27:19;;;;;;;1.47;1.40;;;;;;;;;;1890069;75;26558;-88
2022/08/13 05:29:47;;;;;;;1.10;1.10;;;;;;;;;;1871157;74;26282;-88
2022/08/13 05:32:15;;;;;;;1.20;1.20;;;;;;;;;;1879011;75;26689;-88
2022/08/13 05:34:42;;;;;;;1.10;1.10;;;;;;;;;;1893171;75;26319;-88
2022/08/13 05:37:16;;;;;;;1.25;1.25;;;;;;;;;;1885979;74;26848;-89
2022/08/13 05:39:40;;;;;;;1.20;1.20;;;;;;;;;;1893093;76;26432;-88
2022/08/13 05:42:07;;;;;;;1.12;1.12;;;;;;;;;;1888363;74;26360;-87
2022/08/13 05:44:34;;;;;;;1.20;1.20;;;;;;;;;;1885596;74;26394;-88
2022/08/13 05:47:05;;;;;;;1.32;1.32;;;;;;;;;;1860360;75;26355;-88
2022/08/13 05:49:33;;;;;;;1.27;1.17;;;;;;;;;;1865750;76;26213;-88
2022/08/13 05:52:01;;;;;;;1.30;1.30;;;;;;;;;;1872972;76;26784;-88
2022/08/13 05:54:31;;;;;;;1.10;1.10;;;;;;;;;;1871840;75;26220;-89
2022/08/13 05:56:57;;;;;;;1.20;1.20;;;;;;;;;;1871972;75;26272;-89
2022/08/13 06:04:57;;;;;;;1.40;1.30;;;;;;;;;;1875846;76;26273;-89
2022/08/13 06:07:24;;;;;;;1.40;1.30;;;;;;;;;;1873105;75;26296;-89
2022/08/13 06:09:51;;;;;;;1.32;1.27;;;;;;;;;;1866117;75;26247;-89
2022/08/13 06:12:19;;;;;;;1.10;1.10;;;;;;;;;;1874967;75;26225;-89
2022/08/13 06:14:46;;;;;;;1.30;1.30;;;;;;;;;;1865178;76;26304;-86
2022/08/13 06:17:14;;;;;;;1.55;1.20;;;;;;;;;;1874065;76;26324;-89
2022/08/13 06:19:43;;;;;;;3.92;1.50;;;;;;;;;;1873669;75;26368;-88
2022/08/13 06:22:12;;;;;;;1.40;1.30;;;;;;;;;;1874121;76;26214;-88
2022/08/13 06:24:39;;;;;;;1.67;1.15;;;;;;;;;;1872755;75;26241;-88
2022/08/13 06:27:07;;;;;;;1.25;1.25;;;;;;;;;;1866706;75;26336;-86
2022/08/13 06:29:40;;;;;;;1.47;1.20;;;;;;;;;;1853835;75;26692;-87
2022/08/13 06:32:08;;;;;;;1.00;1.00;;;;;;;;;;1861213;75;26390;-88
2022/08/13 06:34:35;;;;;;;1.30;1.25;;;;;;;;;;1866587;76;26798;-88
2022/08/13 06:37:03;;;;;;;1.32;1.12;;;;;;;;;;1861186;75;26175;-88
2022/08/13 06:39:32;;;;;;;1.45;1.25;;;;;;;;;;1863366;76;26285;-87
2022/08/13 06:42:02;;;;;;;2.62;1.40;;;;;;;;;;1857713;76;26338;-86
2022/08/13 06:44:31;;;;;;;2.05;1.20;;;;;;;;;;1865466;75;26307;-90
2022/08/13 06:47:03;;;;;;;3.80;1.20;;;;;;;;;;1870344;75;26316;-87
2022/08/13 06:49:29;;;;;;;1.25;1.20;;;;;;;;;;1854755;76;26314;-88
2022/08/13 06:51:57;;;;;;;1.07;1.07;;;;;;;;;;1866559;77;26376;-88
2022/08/13 06:54:24;;;;;;;1.20;1.10;;;;;;;;;;1856285;76;26733;-88
2022/08/13 06:56:53;;;;;;;1.22;1.12;;;;;;;;;;1870893;76;26245;-88
2022/08/13 06:59:23;;;;;;;2.85;1.10;;;;;;;;;;1860969;76;26407;-88
2022/08/13 07:01:57;;;;;;;1.30;1.30;;;;;;;;;;1870781;76;26229;-89
2022/08/13 07:04:21;;;;;;;1.30;1.30;;;;;;;;;;1867913;76;26380;-89
2022/08/13 07:06:49;;;;;;;1.10;1.10;;;;;;;;;;1871296;76;26290;-88
2022/08/13 07:09:19;;;;;;;1.30;1.20;;;;;;;;;;1851850;75;26366;-88
2022/08/13 07:11:47;;;;;;;1.85;1.00;;;;;;;;;;1863501;75;26297;-88
2022/08/13 07:14:15;;;;;;;1.10;1.10;;;;;;;;;;1858674;76;26354;-88
2022/08/13 07:16:44;;;;;;;2.35;1.22;;;;;;;;;;1874199;75;26333;-88
2022/08/13 07:19:12;;;;;;;1.42;1.12;;;;;;;;;;1854666;76;26310;-87
2022/08/13 07:21:40;;;;;;;1.25;1.25;;;;;;;;;;1853615;76;26242;-87
2022/08/13 07:24:09;;;;;;;1.20;1.10;;;;;;;;;;1855305;76;26338;-88
2022/08/13 07:26:36;;;;;;;1.75;1.10;;;;;;;;;;1867968;75;26239;-88
2022/08/13 07:29:05;;;;;;;1.00;1.00;;;;;;;;;;1885664;75;26212;-88
2022/08/13 07:31:33;;;;;;;1.85;1.20;;;;;;;;;;1856175;75;26345;-87
2022/08/13 07:34:04;;;;;;;2.90;1.05;;;;;;;;;;1867957;75;26262;-88
2022/08/13 07:36:35;;;;;;;1.05;1.05;;;;;;;;;;1850929;76;26305;-88
2022/08/13 07:39:03;;;;;;;1.10;1.10;;;;;;;;;;1855777;75;26827;-88
2022/08/13 07:41:30;;;;;;;1.10;1.10;;;;;;;;;;1870488;76;26364;-89
2022/08/13 07:43:59;;;;;;;1.10;1.10;;;;;;;;;;1868404;76;26285;-90
2022/08/13 07:46:27;;;;;;;1.10;1.10;;;;;;;;;;1874728;76;26278;-88
2022/08/13 07:48:54;;;;;;;1.00;1.00;;;;;;;;;;1861556;76;26358;-88
2022/08/13 07:51:22;;;;;;;1.00;1.00;;;;;;;;;;1883535;76;26275;-89
2022/08/13 07:53:54;;;;;;;1.00;1.00;;;;;;;;;;1878499;76;26289;-89
2022/08/13 07:56:28;;;;;;;1.07;1.07;;;;;;;;;;1875099;75;26315;-88
2022/08/13 07:58:55;;;;;;;1.20;1.20;;;;;;;;;;1880921;76;26265;-89
2022/08/13 08:01:21;;;;;;;1.00;1.00;;;;;;;;;;1878942;75;26461;-89
2022/08/13 08:03:50;;;;;;;0.90;0.90;;;;;;;;;;1881374;76;26300;-89
2022/08/13 08:06:18;;;;;;;1.02;1.02;;;;;;;;;;1860339;76;26272;-88
2022/08/13 08:08:47;;;;;;;0.90;0.90;;;;;;;;;;1880759;76;26275;-88
2022/08/13 08:12:32;;;;;;;0.90;0.90;;;;;;;;;;1878408;76;26807;-88
2022/08/13 08:13:43;;;;;;;1.00;1.00;;;;;;;;;;1861506;76;26374;-87
2022/08/13 08:16:11;;;;;;;0.90;0.90;;;;;;;;;;1884558;75;26250;-88
2022/08/13 08:18:39;;;;;;;1.02;1.02;;;;;;;;;;1880376;75;26349;-88
2022/08/13 08:21:08;;;;;;;1.15;0.98;;;;;;;;;;1880914;76;26313;-87
2022/08/13 08:23:35;;;;;;;0.80;0.80;;;;;;;;;;1877280;76;26250;-87
2022/08/13 08:26:07;;;;;;;0.93;0.82;;;;;;;;;;1863556;76;26325;-87
2022/08/13 08:28:39;;;;;;;0.88;0.88;;;;;;;;;;1875788;76;26312;-88
2022/08/13 08:31:06;;;;;;;1.00;1.00;;;;;;;;;;1873696;75;26455;-86
2022/08/13 08:33:34;;;;;;;1.17;1.07;;;;;;;;;;1861323;76;26275;-88
2022/08/13 08:36:03;;;;;;;1.00;1.00;;;;;;;;;;1862368;75;26235;-87
2022/08/13 08:44:03;;;;;;;0.90;0.90;;;;;;;;;;1857003;75;26283;-87
2022/08/13 08:46:34;;;;;;;1.10;1.10;;;;;;;;;;1864416;75;26334;-87
2022/08/13 08:49:02;;;;;;;1.00;1.00;;;;;;;;;;1860935;76;26309;-88
2022/08/13 08:51:30;;;;;;;0.98;0.98;;;;;;;;;;1875331;76;26312;-88
2022/08/13 08:53:57;;;;;;;1.02;1.02;;;;;;;;;;1871146;76;26276;-88
2022/08/13 08:56:25;;;;;;;0.95;0.95;;;;;;;;;;1873629;75;26296;-86
2022/08/13 08:58:55;;;;;;;0.90;0.90;;;;;;;;;;1872514;75;26402;-87
2022/08/13 09:01:24;;;;;;;1.00;1.00;;;;;;;;;;1868553;76;26309;-87
2022/08/13 09:03:52;;;;;;;1.05;1.05;;;;;;;;;;1868951;76;26348;-86
2022/08/13 09:06:23;;;;;;;0.90;0.90;;;;;;;;;;1869821;75;26295;-87
2022/08/13 09:08:52;;;;;;;1.10;1.10;;;;;;;;;;1867239;75;26325;-89
2022/08/13 09:11:19;;;;;;;1.05;1.05;;;;;;;;;;1873937;76;26384;-89
2022/08/13 09:13:49;;;;;;;1.05;1.05;;;;;;;;;;1874885;76;26761;-85
2022/08/13 09:16:18;;;;;;;1.00;1.00;;;;;;;;;;1872239;75;26405;-87
2022/08/13 09:18:45;;;;;;;1.20;1.20;;;;;;;;;;1862008;75;26368;-87
2022/08/13 09:21:12;;;;;;;1.15;1.15;;;;;;;;;;1857120;76;26258;-90
2022/08/13 09:23:44;;;;;;;1.12;1.00;;;;;;;;;;1865611;76;26324;-88
2022/08/13 09:26:10;;;;;;;1.22;1.20;;;;;;;;;;1870730;75;26247;-88
2022/08/13 09:28:38;;;;;;;1.10;1.10;;;;;;;;;;1869662;75;26274;-88
2022/08/13 09:31:06;;;;;;;1.20;1.20;;;;;;;;;;1874016;76;26675;-87
2022/08/13 09:33:38;;;;;;;1.10;1.10;;;;;;;;;;1873716;76;26740;-88
2022/08/13 09:36:03;;;;;;;1.30;1.20;;;;;;;;;;1873398;75;26312;-88
2022/08/13 09:38:31;;;;;;;1.65;1.12;;;;;;;;;;1875383;76;26817;-85
2022/08/13 09:41:18;;;;;;;1.10;1.10;;;;;;;;;;1881115;75;26325;-87
2022/08/13 09:43:45;;;;;;;1.10;1.10;;;;;;;;;;1874237;75;26899;-88
2022/08/13 09:46:15;;;;;;;1.10;1.10;;;;;;;;;;1866920;76;26313;-88
2022/08/13 09:48:42;;;;;;;1.22;1.22;;;;;;;;;;1880896;76;26273;-88
2022/08/13 09:51:13;;;;;;;1.10;1.10;;;;;;;;;;1880954;75;26333;-87
2022/08/13 09:53:39;;;;;;;1.00;1.00;;;;;;;;;;1859450;76;26383;-88
2022/08/13 09:56:08;;;;;;;1.00;1.00;;;;;;;;;;1858797;75;26287;-87
2022/08/13 09:58:36;;;;;;;1.00;1.00;;;;;;;;;;1877515;76;26390;-87
2022/08/13 10:01:03;;;;;;;1.05;1.05;;;;;;;;;;1876841;76;26188;-87
2022/08/13 10:03:38;;;;;;;1.17;1.17;;;;;;;;;;1864915;76;26265;-88
2022/08/13 10:06:00;;;;;;;1.10;1.10;;;;;;;;;;1856314;76;26813;-87
2022/08/13 10:08:27;;;;;;;1.20;1.20;;;;;;;;;;1880794;76;27136;-88
2022/08/13 10:10:54;;;;;;;1.10;1.10;;;;;;;;;;1879528;76;26665;-88
2022/08/13 10:13:22;;;;;;;1.00;1.00;;;;;;;;;;1869520;76;26243;-88
2022/08/13 10:15:49;;;;;;;1.00;1.00;;;;;;;;;;1880739;76;26245;-86
2022/08/13 10:18:17;;;;;;;1.20;1.20;;;;;;;;;;1876121;76;26240;-89
2022/08/13 10:20:45;;;;;;;1.22;1.22;;;;;;;;;;1870491;76;26253;-87
2022/08/13 10:23:14;;;;;;;1.20;1.20;;;;;;;;;;1888181;75;26351;-86
2022/08/13 10:25:42;;;;;;;1.55;1.05;;;;;;;;;;1874239;75;26300;-88
2022/08/13 10:28:17;;;;;;;0.80;0.80;;;;;;;;;;1880746;76;26204;-88
2022/08/13 10:30:44;;;;;;;1.10;1.10;;;;;;;;;;1868392;76;26355;-88
2022/08/13 10:33:12;;;;;;;1.10;1.10;;;;;;;;;;1880864;76;26232;-87
2022/08/13 10:35:40;;;;;;;1.00;1.00;;;;;;;;;;1864528;76;26251;-88
2022/08/13 10:38:08;;;;;;;1.20;1.20;;;;;;;;;;1862004;75;26297;-89
2022/08/13 10:40:36;;;;;;;1.12;1.12;;;;;;;;;;1889657;75;26321;-88
2022/08/13 10:43:05;;;;;;;1.00;1.00;;;;;;;;;;1888431;75;26220;-88
2022/08/13 10:45:33;;;;;;;0.90;0.90;;;;;;;;;;1865220;76;26308;-88
2022/08/13 10:48:01;;;;;;;1.00;1.00;;;;;;;;;;1854157;76;26929;-88
2022/08/13 10:50:31;;;;;;;1.05;1.05;;;;;;;;;;1858361;76;26307;-88
2022/08/13 10:52:59;;;;;;;1.10;1.10;;;;;;;;;;1874939;76;26331;-86
2022/08/13 10:55:27;;;;;;;1.00;1.00;;;;;;;;;;1884433;75;26260;-88
2022/08/13 10:57:54;;;;;;;1.10;1.10;;;;;;;;;;1884076;74;26424;-87
2022/08/13 11:00:21;;;;;;;1.10;1.10;;;;;;;;;;1869463;75;26336;-89
2022/08/13 11:02:52;;;;;;;1.10;1.10;;;;;;;;;;1887591;75;26264;-87
2022/08/13 11:05:25;;;;;;;0.98;0.98;;;;;;;;;;1868341;75;26274;-88
2022/08/13 11:07:58;;;;;;;1.10;1.10;;;;;;;;;;1875503;75;26268;-87
2022/08/13 11:10:22;;;;;;;1.10;1.10;;;;;;;;;;1887022;75;26362;-87
2022/08/13 11:12:53;;;;;;;0.90;0.90;;;;;;;;;;1886943;75;26287;-88
2022/08/13 11:15:21;;;;;;;1.00;1.00;;;;;;;;;;1875526;75;26310;-88
2022/08/13 11:17:53;;;;;;;0.90;0.90;;;;;;;;;;1880928;75;26339;-88
2022/08/13 11:20:24;;;;;;;1.10;1.10;;;;;;;;;;1875155;75;26261;-87
2022/08/13 11:22:51;;;;;;;0.90;0.90;;;;;;;;;;1879803;76;27239;-88
2022/08/13 11:25:18;;;;;;;1.00;1.00;;;;;;;;;;1882063;75;26276;-87
2022/08/13 11:27:46;;;;;;;0.90;0.90;;;;;;;;;;1880517;76;27481;-87
2022/08/13 11:30:14;;;;;;;1.15;1.05;;;;;;;;;;1880948;76;26250;-88
2022/08/13 11:32:42;;;;;;;1.00;1.00;;;;;;;;;;1881687;76;26240;-89
2022/08/13 11:35:10;;;;;;;0.90;0.90;;;;;;;;;;1883860;76;26350;-86
2022/08/13 11:37:37;;;;;;;1.00;1.00;;;;;;;;;;1881020;76;26247;-87
2022/08/13 11:40:05;;;;;;;0.93;0.93;;;;;;;;;;1885073;76;26256;-89
2022/08/13 11:42:32;;;;;;;0.90;0.90;;;;;;;;;;1884495;76;26238;-86
2022/08/13 11:44:59;;;;;;;1.00;1.00;;;;;;;;;;1883123;76;26205;-88
2022/08/13 11:47:27;;;;;;;1.00;1.00;;;;;;;;;;1873755;76;26316;-87
2022/08/13 11:49:54;;;;;;;0.90;0.90;;;;;;;;;;1870673;75;26284;-89
2022/08/13 11:52:21;;;;;;;0.90;0.90;;;;;;;;;;1862000;75;26307;-88
2022/08/13 11:54:49;;;;;;;0.90;0.90;;;;;;;;;;1881587;75;26205;-89
2022/08/13 11:57:16;;;;;;;0.98;0.98;;;;;;;;;;1873536;75;26286;-87
2022/08/13 11:59:43;;;;;;;0.90;0.90;;;;;;;;;;1883326;75;26822;-88
2022/08/13 12:02:11;;;;;;;0.90;0.90;;;;;;;;;;1861504;76;26280;-89
2022/08/13 12:04:38;;;;;;;1.00;1.00;;;;;;;;;;1868413;76;26229;-88
2022/08/13 12:07:05;;;;;;;0.93;0.93;;;;;;;;;;1871512;76;26205;-88
2022/08/13 12:09:32;;;;;;;0.93;0.93;;;;;;;;;;1857908;76;26261;-88
2022/08/13 12:12:01;;;;;;;0.95;0.95;;;;;;;;;;1869126;76;26316;-89
2022/08/13 12:14:28;;;;;;;0.90;0.90;;;;;;;;;;1870868;76;26754;-88
2022/08/13 12:16:56;;;;;;;1.07;1.07;;;;;;;;;;1861783;75;26301;-87
2022/08/13 12:19:23;;;;;;;0.90;0.90;;;;;;;;;;1877895;76;26297;-88
2022/08/13 12:21:51;;;;;;;1.00;1.00;;;;;;;;;;1866476;76;26232;-88
2022/08/13 12:24:18;;;;;;;1.00;1.00;;;;;;;;;;1868148;76;26362;-88
2022/08/13 12:26:45;;;;;;;0.90;0.90;;;;;;;;;;1861882;76;26240;-87
2022/08/13 12:29:12;;;;;;;0.80;0.80;;;;;;;;;;1876564;76;26362;-88
2022/08/13 12:31:40;;;;;;;0.82;0.82;;;;;;;;;;1879891;75;26293;-87
2022/08/13 12:34:07;;;;;;;1.00;1.00;;;;;;;;;;1871926;76;26257;-87
2022/08/13 12:36:34;;;;;;;0.98;0.98;;;;;;;;;;1880694;76;26715;-88
2022/08/13 12:39:02;;;;;;;1.00;1.00;;;;;;;;;;1873629;76;26831;-88
2022/08/13 12:41:30;;;;;;;0.90;0.90;;;;;;;;;;1881333;76;26307;-89
2022/08/13 12:43:57;;;;;;;0.90;0.90;;;;;;;;;;1847964;78;26329;-88
2022/08/13 12:46:25;;;;;;;0.90;0.90;;;;;;;;;;1868833;75;26214;-88
2022/08/13 12:48:52;;;;;;;0.98;0.98;;;;;;;;;;1880974;75;26344;-88
2022/08/13 12:51:19;;;;;;;1.00;1.00;;;;;;;;;;1873893;76;26697;-88
2022/08/13 12:53:46;;;;;;;0.90;0.90;;;;;;;;;;1865462;76;26301;-88
2022/08/13 12:56:14;;;;;;;0.90;0.90;;;;;;;;;;1872631;75;26284;-88
2022/08/13 12:58:41;;;;;;;0.90;0.90;;;;;;;;;;1872084;76;26304;-88
2022/08/13 13:01:08;;;;;;;0.90;0.90;;;;;;;;;;1861227;76;26335;-87
2022/08/13 13:03:36;;;;;;;0.80;0.80;;;;;;;;;;1864258;76;26197;-87
2022/08/13 13:06:03;;;;;;;0.88;0.88;;;;;;;;;;1881114;76;26204;-87
2022/08/13 13:08:31;;;;;;;0.82;0.82;;;;;;;;;;1862374;76;26672;-87
2022/08/13 13:10:59;;;;;;;0.80;0.80;;;;;;;;;;1880967;76;26216;-89
2022/08/13 13:13:27;;;;;;;0.88;0.88;;;;;;;;;;1874184;76;26244;-89
2022/08/13 13:15:55;;;;;;;0.85;0.85;;;;;;;;;;1882535;75;26183;-89
2022/08/13 13:18:25;;;;;;;0.90;0.90;;;;;;;;;;1858592;75;26303;-88
2022/08/13 13:20:53;;;;;;;0.95;0.95;;;;;;;;;;1868640;76;26335;-89
2022/08/13 13:23:21;;;;;;;0.80;0.80;;;;;;;;;;1869486;76;26256;-88
2022/08/13 13:25:49;;;;;;;0.90;0.90;;;;;;;;;;1872009;75;26227;-89
2022/08/13 13:28:19;;;;;;;0.80;0.80;;;;;;;;;;1881029;76;26192;-91
2022/08/13 13:30:47;;;;;;;0.82;0.82;;;;;;;;;;1861594;76;26278;-90
2022/08/13 13:33:16;;;;;;;0.90;0.90;;;;;;;;;;1873349;75;26222;-88
2022/08/13 13:35:45;;;;;;;0.80;0.80;;;;;;;;;;1870249;75;26248;-96
2022/08/13 13:38:13;;;;;;;0.82;0.82;;;;;;;;;;1873776;75;26271;-88
2022/08/13 13:40:41;;;;;;;0.85;0.85;;;;;;;;;;1869779;76;26244;-88
2022/08/13 13:43:08;;;;;;;0.75;0.75;;;;;;;;;;1854303;76;26258;-87
2022/08/13 13:45:36;;;;;;;0.80;0.80;;;;;;;;;;1875442;76;26328;-87
2022/08/13 13:48:21;;;;;;;0.80;0.80;;;;;;;;;;1873842;75;26972;-88
2022/08/13 13:50:49;;;;;;;0.80;0.80;;;;;;;;;;1875996;76;26872;-87
2022/08/13 13:53:17;;;;;;;0.95;0.95;;;;;;;;;;1858106;75;26313;-88
2022/08/13 13:55:44;;;;;;;0.90;0.90;;;;;;;;;;1880892;76;26201;-87
2022/08/13 13:58:11;;;;;;;0.80;0.80;;;;;;;;;;1868654;76;26240;-88
2022/08/13 14:00:39;;;;;;;0.82;0.82;;;;;;;;;;1866354;76;26329;-87
2022/08/13 14:03:06;;;;;;;0.75;0.75;;;;;;;;;;1881012;76;26784;-88
2022/08/13 14:05:35;;;;;;;0.80;0.80;;;;;;;;;;1875689;76;26245;-87
2022/08/13 14:08:02;;;;;;;0.90;0.90;;;;;;;;;;1873854;76;26270;-88
2022/08/13 14:10:30;;;;;;;0.70;0.70;;;;;;;;;;1880815;76;26271;-87
2022/08/13 14:13:03;;;;;;;0.78;0.78;;;;;;;;;;1864754;76;27156;-88
2022/08/13 14:15:33;;;;;;;0.80;0.80;;;;;;;;;;1874313;76;26278;-88
2022/08/13 14:18:01;;;;;;;1.00;1.00;;;;;;;;;;1873074;76;26351;-87
2022/08/13 14:20:28;;;;;;;0.90;0.90;;;;;;;;;;1869256;75;26774;-87
2022/08/13 14:22:56;;;;;;;0.80;0.80;;;;;;;;;;1859077;75;26250;-88
2022/08/13 14:25:23;;;;;;;0.72;0.72;;;;;;;;;;1863418;75;26989;-87
2022/08/13 14:27:50;;;;;;;0.80;0.80;;;;;;;;;;1857262;76;26337;-87
2022/08/13 14:30:18;;;;;;;0.82;0.82;;;;;;;;;;1876900;76;26302;-88
2022/08/13 14:32:45;;;;;;;0.80;0.80;;;;;;;;;;1879649;76;26293;-88
2022/08/13 14:35:14;;;;;;;0.80;0.80;;;;;;;;;;1884331;75;26374;-87
2022/08/13 14:37:43;;;;;;;0.90;0.90;;;;;;;;;;1880245;76;26253;-87
2022/08/13 14:40:11;;;;;;;0.70;0.70;;;;;;;;;;1881216;76;26223;-88
2022/08/13 14:42:41;;;;;;;0.80;0.80;;;;;;;;;;1877873;76;26399;-87
2022/08/13 14:47:55;;;;;;;0.80;0.80;;;;;;;;;;1876751;75;26276;-87
2022/08/13 14:50:23;;;;;;;0.80;0.80;;;;;;;;;;1862914;76;26251;-87
2022/08/13 14:52:50;;;;;;;0.80;0.80;;;;;;;;;;1866569;75;26824;-86
2022/08/13 14:55:19;;;;;;;0.80;0.80;;;;;;;;;;1881986;76;26345;-87
2022/08/13 14:58:06;;;;;;;0.75;0.75;;;;;;;;;;1879766;75;26259;-87
2022/08/13 15:00:33;;;;;;;0.80;0.80;;;;;;;;;;1816813;77;26239;-48
2022/08/13 15:03:01;;;;;;;0.80;0.80;;;;;;;;;;1828470;77;26380;-47
2022/08/13 15:05:29;;;;;;;0.70;0.70;;;;;;;;;;1819550;78;26911;-47
2022/08/13 15:07:56;;;;;;;0.85;0.85;;;;;;;;;;1815824;77;26285;-48
2022/08/13 15:10:28;;;;;;;0.80;0.80;;;;;;;;;;1823990;78;26364;-48
2022/08/13 15:12:58;;;;;;;0.80;0.80;;;;;;;;;;1814068;77;26351;-49